Time;durP1;ratioP1;P1;durP2;ratioP2;P2;SDS_P1;SDS_P2;PMS_P1;PMS_P2;Temp;Humidity;BMP_temperature;BMP_pressure;BME280_temperature;BME280_humidity;BME280_pressure;Samples;Min_cycle;Max_cycle;Signal;HPM_P1;HPM_P2
2023/12/31 00:00:53;;;;;;;2.60;2.27;;;;;;;4.91;nan;15750.94;4996017;28;20655;-64
2023/12/31 00:03:18;;;;;;;2.97;2.77;;;;;;;4.88;nan;16389.16;4993911;28;20272;-64
2023/12/31 00:05:43;;;;;;;2.93;2.63;;;;;;;5.03;nan;16074.84;4994750;28;20267;-66
2023/12/31 00:08:11;;;;;;;3.37;3.07;;;;;;;5.10;nan;16077.69;4994529;28;20224;-61
2023/12/31 00:10:38;;;;;;;2.93;2.73;;;;;;;4.84;nan;15109.38;5009844;28;20208;-63
2023/12/31 00:13:04;;;;;;;4.43;2.83;;;;;;;5.02;nan;13199.16;4993381;28;20185;-63
2023/12/31 00:15:29;;;;;;;7.60;3.13;;;;;;;4.72;nan;12870.06;4994658;28;20211;-64
2023/12/31 00:17:55;;;;;;;3.20;2.60;;;;;;;5.11;nan;15438.75;5009392;28;20191;-63
2023/12/31 00:20:20;;;;;;;3.23;2.93;;;;;;;5.10;nan;19276.06;4994579;28;20185;-63
2023/12/31 00:22:46;;;;;;;3.47;3.03;;;;;;;5.06;nan;20554.44;4994381;28;20187;-65
2023/12/31 00:25:11;;;;;;;6.43;4.00;;;;;;;5.03;nan;25998.88;4994511;28;20180;-66
2023/12/31 00:27:37;;;;;;;2.33;2.23;;;;;;;4.91;nan;25030.88;4994484;28;20183;-66
2023/12/31 00:30:03;;;;;;;2.93;2.67;;;;;;;4.78;nan;23422.53;4994386;28;20215;-65
2023/12/31 00:32:28;;;;;;;2.80;2.30;;;;;;;4.82;nan;24065.31;4993917;28;20228;-67
2023/12/31 00:34:53;;;;;;;3.20;2.90;;;;;;;4.98;nan;24073.25;4994525;28;20196;-66
2023/12/31 00:37:19;;;;;;;2.50;2.30;;;;;;;5.26;nan;25690.66;4992864;28;20180;-68
2023/12/31 00:39:44;;;;;;;2.00;1.90;;;;;;;5.12;nan;26645.13;4994457;28;20641;-66
2023/12/31 00:42:10;;;;;;;3.30;2.23;;;;;;;5.14;nan;27287.72;4993455;28;20193;-64
2023/12/31 00:44:35;;;;;;;4.27;2.93;;;;;;;5.36;nan;31795.19;4994243;28;20276;-67
2023/12/31 00:47:01;;;;;;;7.87;3.30;;;;;;;5.27;nan;33718.00;4994021;28;20180;-65
2023/12/31 00:49:26;;;;;;;5.43;2.73;;;;;;;5.29;nan;36292.16;4994119;28;20188;-62
2023/12/31 00:51:51;;;;;;;2.87;2.53;;;;;;;5.00;nan;36593.34;4993837;28;20212;-67
2023/12/31 00:54:17;;;;;;;3.63;2.80;;;;;;;5.27;nan;37256.00;4994011;28;20632;-66
2023/12/31 00:56:42;;;;;;;3.37;2.77;;;;;;;5.11;nan;37566.41;4992699;28;20177;-66
2023/12/31 00:59:07;;;;;;;3.13;2.50;;;;;;;5.24;nan;37575.63;4993759;28;20640;-64
2023/12/31 01:01:33;;;;;;;2.10;2.00;;;;;;;5.12;nan;37245.41;4993953;28;20176;-66
2023/12/31 01:03:58;;;;;;;2.13;1.93;;;;;;;4.96;nan;40776.16;4994030;28;20644;-65
2023/12/31 01:06:24;;;;;;;7.77;3.23;;;;;;;5.29;nan;43519.06;4993760;28;20172;-64
2023/12/31 01:08:50;;;;;;;3.43;3.10;;;;;;;5.06;nan;42331.72;4993789;28;20226;-65
2023/12/31 01:11:15;;;;;;;2.80;2.60;;;;;;;4.99;nan;40111.56;4994159;28;20207;-63
2023/12/31 01:13:41;;;;;;;2.57;2.40;;;;;;;5.21;nan;39791.97;4993777;28;20644;-66
2023/12/31 01:16:06;;;;;;;3.93;3.10;;;;;;;5.17;nan;42950.00;4993514;28;20208;-63
2023/12/31 01:18:32;;;;;;;3.30;2.67;;;;;;;5.23;nan;35644.88;4993545;28;20219;-66
2023/12/31 01:20:57;;;;;;;4.07;3.33;;;;;;;5.15;nan;13522.72;4993526;28;20177;-64
2023/12/31 01:23:23;;;;;;;3.27;2.63;;;;;;;5.11;nan;2996.81;4993428;28;20283;-63
2023/12/31 01:25:49;;;;;;;4.10;2.70;;;;;;;5.08;nan;1404.69;4993575;28;20176;-64
2023/12/31 01:28:14;;;;;;;3.83;3.53;;;;;;;4.95;nan;-505.66;4993429;28;20204;-63
2023/12/31 01:30:40;;;;;;;5.40;3.57;;;;;;;4.95;nan;766.66;4991979;28;20207;-68
2023/12/31 01:33:05;;;;;;;3.10;2.80;;;;;;;4.98;nan;3631.50;4992092;28;20626;-67
2023/12/31 01:35:31;;;;;;;3.73;3.43;;;;;;;4.90;nan;5541.03;4993072;28;20196;-63
2023/12/31 01:37:56;;;;;;;3.83;2.87;;;;;;;5.33;nan;12570.41;4993618;28;20304;-64
2023/12/31 01:40:21;;;;;;;3.03;2.73;;;;;;;5.15;nan;11287.41;4993404;28;20241;-66
2023/12/31 01:42:47;;;;;;;2.17;2.07;;;;;;;4.76;nan;12552.19;4993166;28;20177;-64
2023/12/31 01:45:12;;;;;;;2.20;1.97;;;;;;;4.95;nan;15752.44;4992968;28;20673;-65
2023/12/31 01:47:38;;;;;;;2.30;2.10;;;;;;;5.05;nan;17034.69;4992953;28;20184;-65
2023/12/31 01:50:05;;;;;;;4.20;3.20;;;;;;;4.98;nan;22151.47;4992561;28;20695;-63
2023/12/31 01:52:32;;;;;;;2.27;2.10;;;;;;;4.68;nan;24698.69;4992862;28;20180;-64
2023/12/31 01:55:00;;;;;;;5.50;2.40;;;;;;;4.78;nan;26947.09;4992781;28;20211;-64
2023/12/31 01:57:28;;;;;;;2.27;2.17;;;;;;;4.60;nan;19574.22;4993011;28;20243;-63
2023/12/31 01:59:56;;;;;;;3.10;2.80;;;;;;;4.45;nan;14137.84;4992747;28;20173;-65
2023/12/31 02:02:24;;;;;;;1.90;1.80;;;;;;;4.27;nan;8712.06;4992265;28;20251;-62
2023/12/31 02:04:51;;;;;;;2.30;2.10;;;;;;;4.22;nan;9348.00;4992442;28;20191;-64
2023/12/31 02:07:17;;;;;;;1.90;1.80;;;;;;;4.36;nan;12539.75;4992802;28;20172;-64
2023/12/31 02:09:42;;;;;;;2.33;2.00;;;;;;;4.51;nan;16055.41;4992439;28;20308;-62
2023/12/31 02:12:09;;;;;;;1.93;1.83;;;;;;;4.42;nan;15413.78;4992581;28;20188;-63
2023/12/31 02:14:34;;;;;;;1.80;1.70;;;;;;;4.44;nan;15414.34;5007407;28;20192;-64
2023/12/31 02:17:00;;;;;;;2.40;2.30;;;;;;;4.37;nan;15731.19;4992851;28;20176;-64
2023/12/31 02:19:25;;;;;;;1.87;1.77;;;;;;;4.43;nan;12541.81;4992297;28;20527;-64
2023/12/31 02:21:51;;;;;;;1.77;1.60;;;;;;;4.42;nan;11584.69;4992801;28;20173;-65
2023/12/31 02:24:19;;;;;;;1.77;1.67;;;;;;;4.32;nan;9669.31;4992250;28;20624;-63
2023/12/31 02:26:44;;;;;;;3.03;2.43;;;;;;;4.34;nan;7439.94;4992289;28;20173;-63
2023/12/31 02:29:10;;;;;;;2.00;1.90;;;;;;;4.13;nan;5843.59;4992369;28;20180;-65
2023/12/31 02:31:35;;;;;;;1.77;1.67;;;;;;;4.45;nan;5213.69;4992517;28;20710;-67
2023/12/31 02:34:01;;;;;;;2.00;1.90;;;;;;;4.23;nan;4254.88;4991942;28;20181;-64
2023/12/31 02:36:27;;;;;;;2.00;1.90;;;;;;;4.10;nan;2662.91;4992213;28;20197;-64
2023/12/31 02:38:52;;;;;;;2.30;2.10;;;;;;;4.42;nan;1713.84;4992145;28;20604;-63
2023/12/31 02:41:17;;;;;;;5.07;2.43;;;;;;;4.49;nan;1714.72;4992019;28;20652;-64
2023/12/31 02:43:44;;;;;;;3.43;2.13;;;;;;;4.48;nan;1078.72;4991923;28;20227;-64
2023/12/31 02:46:09;;;;;;;2.70;2.50;;;;;;;4.17;nan;439.44;4992029;28;20168;-64
2023/12/31 02:48:35;;;;;;;2.23;2.07;;;;;;;4.23;nan;-195.28;4991744;28;20177;-64
2023/12/31 02:51:00;;;;;;;1.70;1.60;;;;;;;4.26;nan;-512.56;4991754;28;20185;-64
2023/12/31 02:53:25;;;;;;;2.20;1.97;;;;;;;4.31;nan;-1147.31;4990756;28;20242;-66
2023/12/31 02:55:51;;;;;;;2.30;2.10;;;;;;;4.57;nan;-827.22;4991725;28;20211;-64
2023/12/31 02:58:16;;;;;;;5.83;2.20;;;;;;;4.08;nan;-831.94;4991577;28;20188;-65
2023/12/31 03:00:42;;;;;;;2.80;2.57;;;;;;;4.39;nan;-1781.81;4992203;28;20207;-65
2023/12/31 03:03:07;;;;;;;3.50;2.63;;;;;;;4.44;nan;-3051.66;4991520;28;20655;-62
2023/12/31 03:05:33;;;;;;;2.60;2.37;;;;;;;4.22;nan;-3370.28;4992371;28;20619;-65
2023/12/31 03:07:59;;;;;;;1.80;1.70;;;;;;;4.22;nan;-4004.91;4991548;28;20184;-63
2023/12/31 03:10:24;;;;;;;2.07;1.97;;;;;;;4.37;nan;-4321.59;4992130;28;20263;-64
2023/12/31 03:12:50;;;;;;;2.40;2.30;;;;;;;4.23;nan;-4322.16;4991644;28;20360;-65
2023/12/31 03:15:15;;;;;;;2.43;2.00;;;;;;;4.36;nan;-4321.63;4991624;28;20606;-64
2023/12/31 03:17:40;;;;;;;2.77;2.50;;;;;;;4.54;nan;-4320.94;4991514;28;20176;-62
2023/12/31 03:20:06;;;;;;;3.83;2.87;;;;;;;4.42;nan;-4638.75;4994195;28;20534;-65
2023/12/31 03:22:32;;;;;;;2.77;2.57;;;;;;;4.41;nan;-4004.06;4995644;28;20235;-67
2023/12/31 03:24:57;;;;;;;2.83;2.37;;;;;;;4.20;nan;-4005.00;4995546;28;20187;-66
2023/12/31 03:27:23;;;;;;;4.53;3.17;;;;;;;4.45;nan;-4638.63;4995692;28;20204;-66
2023/12/31 03:29:49;;;;;;;4.03;3.20;;;;;;;4.47;nan;-4638.59;4995340;28;20644;-66
2023/12/31 03:32:14;;;;;;;2.97;2.77;;;;;;;4.50;nan;-4321.09;5010148;28;20232;-65
2023/12/31 03:34:39;;;;;;;5.87;2.27;;;;;;;4.48;nan;-4003.81;4995784;28;20179;-65
2023/12/31 03:37:05;;;;;;;1.97;1.87;;;;;;;4.34;nan;-2099.78;4995599;28;20283;-64
2023/12/31 03:39:31;;;;;;;2.33;2.13;;;;;;;4.19;nan;-1465.94;4995154;28;20177;-66
2023/12/31 03:41:56;;;;;;;2.30;2.10;;;;;;;4.10;nan;-2101.59;4995240;28;20261;-63
2023/12/31 03:44:21;;;;;;;2.20;1.87;;;;;;;3.94;nan;-2420.06;4995272;28;20704;-63
2023/12/31 03:46:47;;;;;;;2.80;2.27;;;;;;;3.85;nan;-2420.69;4994878;28;20172;-67
2023/12/31 03:49:12;;;;;;;2.40;2.20;;;;;;;3.82;nan;-2738.13;4995137;28;20644;-63
2023/12/31 03:51:37;;;;;;;2.57;2.03;;;;;;;3.75;nan;-2738.59;4995456;28;20180;-66
2023/12/31 03:54:05;;;;;;;4.60;1.93;;;;;;;3.70;nan;-3056.06;4993744;28;20189;-64
2023/12/31 03:56:31;;;;;;;3.67;2.27;;;;;;;3.74;nan;-3055.81;4994686;28;20200;-66
2023/12/31 03:58:56;;;;;;;2.50;2.37;;;;;;;3.78;nan;-3055.56;4994641;28;20177;-66
2023/12/31 04:01:21;;;;;;;2.80;2.23;;;;;;;3.76;nan;-3372.78;4994575;28;20616;-64
2023/12/31 04:03:47;;;;;;;3.57;2.60;;;;;;;3.58;nan;-4007.75;4995043;28;20172;-66
2023/12/31 04:06:12;;;;;;;3.40;2.27;;;;;;;3.84;nan;-4323.66;4994815;28;20231;-65
2023/12/31 04:08:38;;;;;;;2.20;2.00;;;;;;;3.60;nan;-4324.56;4993908;28;20200;-65
2023/12/31 04:11:03;;;;;;;1.93;1.83;;;;;;;3.64;nan;-4641.38;4994990;28;20231;-64
2023/12/31 04:13:29;;;;;;;2.40;2.20;;;;;;;3.53;nan;-5275.34;4995272;28;20177;-62
2023/12/31 04:15:55;;;;;;;1.70;1.60;;;;;;;3.75;nan;-5591.78;4994546;28;20246;-64
2023/12/31 04:18:20;;;;;;;2.60;2.20;;;;;;;3.56;nan;-5908.88;4994730;28;20192;-66
2023/12/31 04:20:45;;;;;;;2.20;2.10;;;;;;;3.73;nan;-6225.47;4994513;28;20752;-66
2023/12/31 04:23:11;;;;;;;6.07;3.10;;;;;;;3.61;nan;-6542.31;4994284;28;20172;-64
2023/12/31 04:25:36;;;;;;;1.87;1.77;;;;;;;3.74;nan;-6542.28;4994509;28;20599;-64
2023/12/31 04:28:02;;;;;;;1.40;1.37;;;;;;;3.79;nan;-6859.06;4994523;28;20315;-64
2023/12/31 04:30:27;;;;;;;2.60;2.03;;;;;;;3.83;nan;-7175.84;4994415;28;20543;-66
2023/12/31 04:32:53;;;;;;;3.00;2.73;;;;;;;3.83;nan;-7809.34;4994338;28;20711;-62
2023/12/31 04:35:18;;;;;;;2.27;2.13;;;;;;;3.84;nan;-7809.34;4994273;28;20210;-65
2023/12/31 04:37:44;;;;;;;3.13;2.77;;;;;;;3.75;nan;-7492.50;4994326;28;20187;-63
2023/12/31 04:40:10;;;;;;;3.87;2.97;;;;;;;3.95;nan;-7175.97;4992241;28;20181;-66
2023/12/31 04:42:35;;;;;;;3.23;3.00;;;;;;;3.85;nan;-6859.06;4980216;28;20563;-66
2023/12/31 04:45:04;;;;;;;2.03;1.93;;;;;;;3.65;nan;-6542.28;4983924;28;20267;-63
2023/12/31 04:47:30;;;;;;;1.67;1.57;;;;;;;3.22;nan;-7491.78;4983827;28;20181;-67
2023/12/31 04:49:55;;;;;;;5.77;2.60;;;;;;;3.60;nan;-7175.66;4982814;28;20726;-63
2023/12/31 04:52:21;;;;;;;2.13;2.00;;;;;;;3.70;nan;-7175.75;4988359;28;20184;-64
2023/12/31 04:54:46;;;;;;;2.67;2.30;;;;;;;3.44;nan;-7492.09;4979281;28;20574;-65
2023/12/31 04:57:12;;;;;;;1.50;1.40;;;;;;;3.75;nan;-7809.19;4980904;28;20192;-65
2023/12/31 04:59:39;;;;;;;3.07;2.73;;;;;;;3.49;nan;-8125.22;4978343;28;20272;-64
2023/12/31 05:02:05;;;;;;;2.40;2.20;;;;;;;3.72;nan;-8442.34;4983956;28;20303;-63
2023/12/31 05:04:30;;;;;;;2.50;2.30;;;;;;;3.51;nan;-8758.22;4991033;28;20540;-65
2023/12/31 05:06:57;;;;;;;2.73;2.53;;;;;;;3.51;nan;-8758.22;4993689;28;20194;-64
2023/12/31 05:09:23;;;;;;;4.00;3.70;;;;;;;3.71;nan;-8758.91;4993676;28;20212;-62
2023/12/31 05:11:48;;;;;;;2.40;2.27;;;;;;;3.71;nan;-8125.72;4984056;28;20579;-65
2023/12/31 05:14:14;;;;;;;3.33;3.03;;;;;;;3.73;nan;-8442.38;4987218;28;20275;-66
2023/12/31 05:16:39;;;;;;;2.27;2.17;;;;;;;4.05;nan;-8443.31;4981361;28;20212;-65
2023/12/31 05:19:05;;;;;;;4.80;2.47;;;;;;;4.12;nan;-8126.72;4980875;28;20205;-65
2023/12/31 05:21:30;;;;;;;3.10;2.80;;;;;;;4.04;nan;-7809.72;4983804;28;20284;-63
2023/12/31 05:23:56;;;;;;;2.00;1.73;;;;;;;3.91;nan;-8126.22;4985498;28;20283;-65
2023/12/31 05:26:21;;;;;;;3.77;2.80;;;;;;;4.03;nan;-7809.72;4985275;28;20644;-65
2023/12/31 05:28:47;;;;;;;5.63;3.07;;;;;;;3.87;nan;-7809.41;4984308;28;20196;-66
2023/12/31 05:31:12;;;;;;;3.33;2.73;;;;;;;4.00;nan;-8126.44;4990411;28;20617;-66
2023/12/31 05:33:37;;;;;;;3.47;3.00;;;;;;;3.80;nan;-8125.97;4983511;28;20608;-64
2023/12/31 05:36:03;;;;;;;3.10;2.70;;;;;;;4.10;nan;-8126.66;4989287;28;20224;-66
2023/12/31 05:38:29;;;;;;;2.13;2.03;;;;;;;3.91;nan;-8126.22;4982839;28;20232;-66
2023/12/31 05:40:55;;;;;;;1.57;1.47;;;;;;;4.14;nan;-8126.78;4979744;28;20185;-63
2023/12/31 05:43:20;;;;;;;2.20;1.90;;;;;;;4.14;nan;-8126.78;4983013;28;20183;-66
2023/12/31 05:45:46;;;;;;;2.33;2.17;;;;;;;3.92;nan;-8126.25;5005103;28;20188;-66
2023/12/31 05:48:13;;;;;;;7.13;2.50;;;;;;;4.21;nan;-8126.94;4990903;28;20248;-63
2023/12/31 05:50:39;;;;;;;3.87;2.70;;;;;;;4.13;nan;-8126.72;4982952;28;20239;-63
2023/12/31 05:53:04;;;;;;;4.07;3.37;;;;;;;3.92;nan;-7492.75;4979760;28;20177;-64
2023/12/31 05:55:31;;;;;;;7.87;3.10;;;;;;;3.85;nan;-7492.66;4982703;28;20315;-64
2023/12/31 05:57:56;;;;;;;3.13;2.30;;;;;;;4.06;nan;-8126.56;4985081;28;20224;-65
2023/12/31 06:00:23;;;;;;;2.53;2.30;;;;;;;3.85;nan;-8442.75;4979544;28;20212;-65
2023/12/31 06:02:48;;;;;;;3.20;2.93;;;;;;;3.97;nan;-8126.34;4978852;28;20194;-65
2023/12/31 06:05:15;;;;;;;4.40;3.00;;;;;;;3.82;nan;-7492.59;4982959;28;20298;-63
2023/12/31 06:07:41;;;;;;;3.43;2.63;;;;;;;3.89;nan;-7492.69;4977346;28;20189;-65
2023/12/31 06:10:07;;;;;;;3.70;2.80;;;;;;;3.93;nan;-7492.75;4979472;28;20273;-64
2023/12/31 06:12:33;;;;;;;2.53;2.33;;;;;;;4.21;nan;-7493.13;4977694;28;20189;-66
2023/12/31 06:15:06;;;;;;;3.30;2.47;;;;;;;4.36;nan;-7176.28;4983181;28;20620;-63
2023/12/31 06:17:34;;;;;;;2.87;2.07;;;;;;;4.27;nan;-7176.22;4983565;28;20199;-63
2023/12/31 06:20:00;;;;;;;2.80;2.60;;;;;;;4.10;nan;-6859.16;4984050;28;20188;-65
2023/12/31 06:22:26;;;;;;;2.70;2.40;;;;;;;4.50;nan;-6859.28;4978724;28;20276;-67
2023/12/31 06:24:51;;;;;;;1.87;1.77;;;;;;;4.41;nan;-6542.13;4978427;28;20684;-64
2023/12/31 06:27:17;;;;;;;4.80;3.43;;;;;;;4.50;nan;-6224.91;4989223;28;20188;-63
2023/12/31 06:29:43;;;;;;;2.43;2.23;;;;;;;4.26;nan;-6225.09;4988279;28;20184;-64
2023/12/31 06:32:08;;;;;;;8.10;3.23;;;;;;;4.22;nan;-6225.13;4986067;28;20231;-64
2023/12/31 06:34:34;;;;;;;2.30;2.10;;;;;;;4.24;nan;-6542.16;4986952;28;20656;-65
2023/12/31 06:36:59;;;;;;;3.47;3.03;;;;;;;4.25;nan;-6859.19;4979134;28;20181;-65
2023/12/31 06:39:24;;;;;;;4.40;4.00;;;;;;;4.68;nan;-4955.31;4982559;28;20176;-64
2023/12/31 06:41:50;;;;;;;9.93;4.03;;;;;;;4.36;nan;-4004.28;4989241;28;20184;-65
2023/12/31 06:44:16;;;;;;;3.57;3.27;;;;;;;4.32;nan;-3687.13;4992016;28;20226;-62
2023/12/31 06:46:42;;;;;;;2.80;2.43;;;;;;;4.41;nan;-3051.78;4985208;28;20184;-65
2023/12/31 06:49:07;;;;;;;4.33;2.80;;;;;;;4.33;nan;-3369.69;4981470;28;20195;-67
2023/12/31 06:51:33;;;;;;;1.97;1.60;;;;;;;4.54;nan;-3686.09;4977306;28;20194;-64
2023/12/31 06:53:58;;;;;;;2.60;2.40;;;;;;;4.47;nan;-3051.47;4983156;28;20289;-64
2023/12/31 06:56:24;;;;;;;3.07;2.77;;;;;;;4.47;nan;-3368.97;4991302;28;20219;-63
2023/12/31 06:58:50;;;;;;;2.27;2.07;;;;;;;4.58;nan;-3050.84;4991312;28;20223;-65
2023/12/31 07:01:16;;;;;;;1.60;1.50;;;;;;;4.76;nan;-2414.38;4991510;28;20606;-64
2023/12/31 07:03:43;;;;;;;1.67;1.57;;;;;;;4.98;nan;-1777.09;4980153;28;20215;-66
2023/12/31 07:06:08;;;;;;;2.13;2.03;;;;;;;4.73;nan;-2096.84;4989275;28;20662;-64
2023/12/31 07:08:34;;;;;;;2.33;2.17;;;;;;;4.82;nan;-1778.38;4990011;28;20193;-65
2023/12/31 07:11:00;;;;;;;3.60;3.27;;;;;;;5.11;nan;-1458.06;4984964;28;20185;-64
2023/12/31 07:13:25;;;;;;;2.87;2.53;;;;;;;5.01;nan;-1140.97;4982357;28;20185;-63
2023/12/31 07:15:51;;;;;;;1.77;1.67;;;;;;;4.85;nan;-188.59;4981850;28;20215;-67
2023/12/31 07:18:16;;;;;;;1.70;1.60;;;;;;;4.87;nan;-1460.09;4979954;28;20193;-64
2023/12/31 07:20:41;;;;;;;2.33;2.07;;;;;;;4.37;nan;-2734.56;4985525;28;20185;-64
2023/12/31 07:23:07;;;;;;;3.03;2.80;;;;;;;4.64;nan;-3685.59;4991315;28;20208;-63
2023/12/31 07:25:33;;;;;;;2.10;2.00;;;;;;;4.53;nan;-4003.56;4986613;28;20188;-65
2023/12/31 07:28:01;;;;;;;2.10;2.00;;;;;;;4.64;nan;-3685.59;4981660;28;20244;-62
2023/12/31 07:30:26;;;;;;;1.90;1.50;;;;;;;4.55;nan;-3368.53;4986922;28;20185;-64
2023/12/31 07:32:52;;;;;;;2.10;1.90;;;;;;;4.42;nan;-3369.22;5005954;28;20731;-65
2023/12/31 07:35:17;;;;;;;2.10;1.90;;;;;;;4.84;nan;-3049.25;4989151;28;20295;-66
2023/12/31 07:37:43;;;;;;;1.90;1.67;;;;;;;4.97;nan;-2412.88;4987675;28;20620;-65
2023/12/31 07:40:10;;;;;;;2.00;1.87;;;;;;;4.86;nan;-2413.63;4989249;28;20184;-66
2023/12/31 07:42:37;;;;;;;3.03;2.83;;;;;;;5.36;nan;-2410.19;4982511;28;20187;-64
2023/12/31 07:45:07;;;;;;;4.43;3.23;;;;;;;5.60;nan;-499.03;4976351;28;20200;-64
2023/12/31 07:47:35;;;;;;;5.17;3.43;;;;;;;5.74;nan;2050.75;4978453;28;20617;-63
2023/12/31 07:50:02;;;;;;;6.67;4.70;;;;;;;5.77;nan;1413.84;4986365;28;20189;-65
2023/12/31 07:52:28;;;;;;;3.00;2.80;;;;;;;5.78;nan;3326.22;4984571;28;20247;-63
2023/12/31 07:54:53;;;;;;;3.83;2.07;;;;;;;5.98;nan;3648.50;4976143;28;20197;-62
2023/12/31 07:57:19;;;;;;;2.47;2.03;;;;;;;5.77;nan;3007.28;4979178;28;20189;-66
2023/12/31 07:59:44;;;;;;;3.93;3.30;;;;;;;5.83;nan;3008.25;4975585;28;20248;-65
2023/12/31 08:02:10;;;;;;;2.90;2.43;;;;;;;6.04;nan;2692.75;4979747;28;20184;-64
2023/12/31 08:04:35;;;;;;;3.90;3.30;;;;;;;6.36;nan;3016.66;4984744;28;20248;-67
2023/12/31 08:07:01;;;;;;;7.93;3.83;;;;;;;6.20;nan;3971.25;4983060;28;20549;-65
2023/12/31 08:09:27;;;;;;;3.90;3.37;;;;;;;6.70;nan;4938.13;4990073;28;20169;-69
2023/12/31 08:11:53;;;;;;;6.83;4.37;;;;;;;6.82;nan;7177.81;4986859;28;20200;-64
2023/12/31 08:14:18;;;;;;;7.03;5.40;;;;;;;7.05;nan;8142.78;4986277;28;20177;-66
2023/12/31 08:16:46;;;;;;;6.30;4.23;;;;;;;7.29;nan;8788.75;4983754;28;20205;-65
2023/12/31 08:19:12;;;;;;;12.77;6.13;;;;;;;7.27;nan;11990.91;4991327;28;20724;-66
2023/12/31 08:21:37;;;;;;;8.70;4.70;;;;;;;7.36;nan;12955.06;4994442;28;20333;-66
2023/12/31 08:24:03;;;;;;;7.70;5.67;;;;;;;7.37;nan;13596.59;4992856;28;20534;-66
2023/12/31 08:26:28;;;;;;;7.47;6.67;;;;;;;7.46;nan;13599.63;4994340;28;20207;-62
2023/12/31 08:28:54;;;;;;;5.00;4.50;;;;;;;7.26;nan;14554.72;4994370;28;20557;-64
2023/12/31 08:31:20;;;;;;;4.47;3.80;;;;;;;7.59;nan;14887.25;4994184;28;20605;-64
2023/12/31 08:33:45;;;;;;;3.80;3.43;;;;;;;7.63;nan;14246.78;4994164;28;20173;-66
2023/12/31 08:36:11;;;;;;;3.73;3.43;;;;;;;7.66;nan;13927.19;4993993;28;20275;-65
2023/12/31 08:38:36;;;;;;;5.17;3.80;;;;;;;7.96;nan;15542.72;4993905;28;20263;-64
2023/12/31 08:41:02;;;;;;;5.43;4.67;;;;;;;7.99;nan;15865.00;4993992;28;20256;-65
2023/12/31 08:43:28;;;;;;;4.17;3.77;;;;;;;7.95;nan;16827.09;4994227;28;20169;-63
2023/12/31 08:45:53;;;;;;;4.13;3.70;;;;;;;7.91;nan;17146.75;4993872;28;20180;-64
2023/12/31 08:48:20;;;;;;;4.47;3.30;;;;;;;7.77;nan;16498.72;4993631;28;20334;-66
2023/12/31 08:50:45;;;;;;;2.97;2.30;;;;;;;7.85;nan;14896.41;4993374;28;20231;-64
2023/12/31 08:53:11;;;;;;;2.60;2.40;;;;;;;7.83;nan;14895.69;4982676;28;20184;-63
2023/12/31 08:55:36;;;;;;;2.60;2.40;;;;;;;7.15;nan;13268.84;4990537;28;20667;-65
2023/12/31 08:58:02;;;;;;;3.07;2.33;;;;;;;7.75;nan;13930.09;4993657;28;20180;-66
2023/12/31 09:00:28;;;;;;;2.07;1.97;;;;;;;7.48;nan;13279.81;4994136;28;20192;-66
2023/12/31 09:02:54;;;;;;;2.90;2.70;;;;;;;7.71;nan;11042.59;5008842;28;20215;-66
2023/12/31 09:05:20;;;;;;;2.97;2.67;;;;;;;7.78;nan;11685.94;4993553;28;20173;-66
2023/12/31 09:07:45;;;;;;;2.00;1.87;;;;;;;7.57;nan;11679.50;4993642;28;20234;-65
2023/12/31 09:10:11;;;;;;;2.90;2.60;;;;;;;7.84;nan;12008.47;4993988;28;20535;-66
2023/12/31 09:12:36;;;;;;;2.90;2.47;;;;;;;8.04;nan;13297.91;4993417;28;20180;-66
2023/12/31 09:15:02;;;;;;;2.30;2.10;;;;;;;7.84;nan;15217.22;4993896;28;20212;-64
2023/12/31 09:17:28;;;;;;;1.73;1.60;;;;;;;8.12;nan;16190.75;4992906;28;20246;-62
2023/12/31 09:19:55;;;;;;;1.87;1.77;;;;;;;8.07;nan;16831.38;4993393;28;20655;-66
2023/12/31 09:22:21;;;;;;;2.07;1.83;;;;;;;8.49;nan;19099.31;4993113;28;20223;-66
2023/12/31 09:24:48;;;;;;;2.07;1.97;;;;;;;8.60;nan;22001.31;4993652;28;20272;-63
2023/12/31 09:27:14;;;;;;;2.77;2.03;;;;;;;8.63;nan;22003.00;4993378;28;20307;-64
2023/12/31 09:29:39;;;;;;;2.47;2.27;;;;;;;8.79;nan;22010.38;4987186;28;20283;-67
2023/12/31 09:32:05;;;;;;;2.65;2.20;;;;;;;9.02;nan;25568.69;4993275;28;20585;-64
2023/12/31 09:34:30;;;;;;;1.70;1.60;;;;;;;9.11;nan;28802.09;4993162;28;20192;-64
2023/12/31 09:36:55;;;;;;;2.83;2.20;;;;;;;9.43;nan;34643.09;4992493;28;20315;-66
2023/12/31 09:39:21;;;;;;;2.55;2.35;;;;;;;9.77;nan;39394.28;4992972;28;20173;-64
2023/12/31 09:41:52;;;;;;;1.95;1.70;;;;;;;9.49;nan;45297.84;4993116;28;20181;-64
2023/12/31 09:44:19;;;;;;;2.65;2.45;;;;;;;10.04;nan;49726.59;4992975;28;20169;-65
2023/12/31 09:47:06;;;;;;;1.70;1.48;;;;;;;10.42;nan;52050.34;4993108;28;20168;-62
2023/12/31 09:49:34;;;;;;;2.50;1.92;;;;;;;10.45;nan;55315.03;4992963;28;20231;-63
2023/12/31 09:52:03;;;;;;;1.80;1.70;;;;;;;10.64;nan;56415.47;4993036;28;20554;-61
2023/12/31 09:54:32;;;;;;;1.70;1.60;;;;;;;10.51;nan;56001.97;4992827;28;20169;-65
2023/12/31 09:56:58;;;;;;;1.55;1.45;;;;;;;10.59;nan;56292.88;4992773;28;20667;-62
2023/12/31 09:59:27;;;;;;;2.75;1.95;;;;;;;10.57;nan;56446.91;4992451;28;20180;-66
2023/12/31 10:02:02;;;;;;;1.38;1.27;;;;;;;10.82;nan;57552.09;5000513;28;20596;-66
2023/12/31 10:04:28;;;;;;;1.63;1.52;;;;;;;11.20;nan;58223.13;4989013;28;20315;-67
2023/12/31 10:06:56;;;;;;;3.60;2.15;;;;;;;11.50;nan;58843.44;4992573;28;20180;-65
2023/12/31 10:09:27;;;;;;;2.67;2.10;;;;;;;11.59;nan;59524.56;4992331;28;20262;-66
2023/12/31 10:11:54;;;;;;;2.22;1.58;;;;;;;11.62;nan;59436.38;4996831;28;20199;-63
2023/12/31 10:14:23;;;;;;;2.75;2.42;;;;;;;11.97;nan;59574.19;5001380;28;20528;-65
2023/12/31 10:16:50;;;;;;;1.65;1.55;;;;;;;11.88;nan;59677.34;4990330;28;20204;-64
2023/12/31 10:19:19;;;;;;;2.70;2.03;;;;;;;12.28;nan;59644.22;4992908;28;20193;-64
2023/12/31 10:21:45;;;;;;;2.17;2.05;;;;;;;12.37;nan;59832.84;5007364;28;20259;-64
2023/12/31 10:24:12;;;;;;;1.65;1.55;;;;;;;12.29;nan;59905.91;5007227;28;20542;-66
2023/12/31 10:26:39;;;;;;;2.88;2.65;;;;;;;12.21;nan;59956.47;5007433;28;20191;-65
2023/12/31 10:29:05;;;;;;;1.73;1.63;;;;;;;11.91;nan;59910.41;4992126;28;20189;-63
2023/12/31 10:31:31;;;;;;;2.00;1.80;;;;;;;11.79;nan;59871.50;4991790;28;20224;-62
2023/12/31 10:34:12;;;;;;;2.13;1.85;;;;;;;11.57;nan;59827.19;4992186;28;20640;-64
2023/12/31 10:36:37;;;;;;;1.55;1.45;;;;;;;11.78;nan;59788.53;4992121;28;20670;-64
2023/12/31 10:39:03;;;;;;;1.70;1.60;;;;;;;11.87;nan;59839.44;4992199;28;20175;-64
2023/12/31 10:41:34;;;;;;;1.92;1.67;;;;;;;11.94;nan;59852.84;4991843;28;20173;-63
2023/12/31 10:44:03;;;;;;;2.08;1.70;;;;;;;12.22;nan;59933.97;4991788;28;20607;-63
2023/12/31 10:46:32;;;;;;;2.33;2.15;;;;;;;12.49;nan;60109.91;4992001;28;20597;-63
2023/12/31 10:49:02;;;;;;;2.38;2.00;;;;;;;12.66;nan;60182.66;4991917;28;20180;-65
2023/12/31 10:51:28;;;;;;;2.58;2.38;;;;;;;12.57;nan;60184.88;4991660;28;20211;-63
2023/12/31 10:53:57;;;;;;;1.90;1.80;;;;;;;12.69;nan;60341.72;4991824;28;20240;-65
2023/12/31 10:56:25;;;;;;;2.15;1.95;;;;;;;12.54;nan;60465.84;4991721;28;20550;-66
2023/12/31 10:58:54;;;;;;;2.35;1.90;;;;;;;12.28;nan;60355.41;4991891;28;20263;-64
2023/12/31 11:01:22;;;;;;;2.63;2.42;;;;;;;11.93;nan;60358.41;4991493;28;20184;-64
2023/12/31 11:03:48;;;;;;;1.77;1.67;;;;;;;11.98;nan;60309.69;4991343;28;20177;-65
2023/12/31 11:06:16;;;;;;;1.90;1.70;;;;;;;12.09;nan;60296.38;4991210;28;20177;-63
2023/12/31 11:08:44;;;;;;;1.92;1.83;;;;;;;12.13;nan;60293.16;4988936;28;20189;-64
2023/12/31 11:11:09;;;;;;;2.35;2.15;;;;;;;12.16;nan;60245.28;4991658;28;20267;-64
2023/12/31 11:13:38;;;;;;;2.00;1.88;;;;;;;12.14;nan;60263.53;4991360;28;20319;-64
2023/12/31 11:16:06;;;;;;;2.28;1.77;;;;;;;12.10;nan;60253.97;4991422;28;20224;-65
2023/12/31 11:18:53;;;;;;;2.40;2.05;;;;;;;11.93;nan;60250.91;4978077;28;20319;-66
2023/12/31 11:21:35;;;;;;;2.67;1.83;;;;;;;11.87;nan;60187.41;4984899;28;20196;-62
2023/12/31 11:24:13;;;;;;;1.98;1.52;;;;;;;11.71;nan;60179.78;4979908;28;20562;-65
2023/12/31 11:26:40;;;;;;;1.77;1.67;;;;;;;11.35;nan;60053.88;4985018;28;20180;-66
2023/12/31 11:29:09;;;;;;;1.95;1.85;;;;;;;11.47;nan;60056.44;4985599;28;20652;-63
2023/12/31 11:31:39;;;;;;;4.70;1.92;;;;;;;11.55;nan;60111.38;4984723;28;20374;-64
2023/12/31 11:34:05;;;;;;;1.50;1.40;;;;;;;11.47;nan;60049.31;4985104;28;20243;-65
2023/12/31 11:36:31;;;;;;;2.20;2.00;;;;;;;11.76;nan;60108.63;4984776;28;20286;-64
2023/12/31 11:38:58;;;;;;;1.90;1.70;;;;;;;11.74;nan;60132.00;4985016;28;20186;-64
2023/12/31 11:41:25;;;;;;;1.80;1.70;;;;;;;11.68;nan;60115.06;4989358;28;20192;-65
2023/12/31 11:43:51;;;;;;;3.15;2.08;;;;;;;11.52;nan;60166.84;4990908;28;20185;-66
2023/12/31 11:46:35;;;;;;;3.97;1.88;;;;;;;11.69;nan;60157.09;4989984;28;20184;-64
2023/12/31 11:49:01;;;;;;;1.40;1.30;;;;;;;11.67;nan;60191.22;4990411;28;20190;-66
2023/12/31 11:51:52;;;;;;;2.15;1.88;;;;;;;11.45;nan;60143.72;4988673;28;20203;-64
2023/12/31 11:54:20;;;;;;;2.53;2.35;;;;;;;11.35;nan;60184.28;4989892;28;20275;-62